Time;durP1;ratioP1;P1;durP2;ratioP2;P2;SDS_P1;SDS_P2;PMS_P1;PMS_P2;Temp;Humidity;BMP_temperature;BMP_pressure;BME280_temperature;BME280_humidity;BME280_pressure;Samples;Min_cycle;Max_cycle;Signal;HPM_P1;HPM_P2
2023/07/20 00:01:50;;;;;;;7.60;2.33;;;46.00;28.70;;;;;;4873242;29;20025;-70
2023/07/20 00:04:16;;;;;;;12.73;2.05;;;46.10;28.90;;;;;;4872893;29;20044;-65
2023/07/20 00:06:43;;;;;;;7.63;1.75;;;46.00;28.50;;;;;;4872385;29;21344;-69
2023/07/20 00:09:09;;;;;;;16.27;2.30;;;46.00;28.80;;;;;;4873670;29;20028;-68
2023/07/20 00:11:39;;;;;;;5.80;2.03;;;46.00;28.40;;;;;;4872167;29;20045;-67
2023/07/20 00:14:06;;;;;;;7.63;2.10;;;45.90;28.50;;;;;;4872400;29;20032;-68
2023/07/20 00:16:33;;;;;;;7.65;2.00;;;45.90;28.50;;;;;;4872730;29;20017;-67
2023/07/20 00:18:59;;;;;;;8.88;1.75;;;45.90;28.20;;;;;;4872866;29;20017;-67
2023/07/20 00:21:26;;;;;;;10.45;2.28;;;45.80;28.10;;;;;;4872018;29;20085;-66
2023/07/20 00:23:52;;;;;;;7.85;1.80;;;45.70;28.70;;;;;;4872362;29;20060;-70
2023/07/20 00:26:19;;;;;;;17.45;2.22;;;45.60;28.50;;;;;;4871961;29;20072;-69
2023/07/20 00:28:45;;;;;;;4.85;1.73;;;45.70;28.80;;;;;;4872376;29;20033;-70
2023/07/20 00:31:11;;;;;;;8.10;1.92;;;45.60;28.10;;;;;;4872252;29;20033;-69
2023/07/20 00:33:38;;;;;;;8.85;2.03;;;45.60;29.10;;;;;;4873410;29;20029;-69
2023/07/20 00:36:04;;;;;;;7.13;1.30;;;45.60;28.40;;;;;;4872930;29;20021;-71
2023/07/20 00:38:31;;;;;;;10.20;2.47;;;45.50;28.30;;;;;;4871722;29;20117;-70
2023/07/20 00:40:57;;;;;;;11.50;2.30;;;45.40;28.20;;;;;;4872601;29;20025;-68
2023/07/20 00:43:24;;;;;;;13.30;2.78;;;45.40;28.30;;;;;;4870892;29;20025;-69
2023/07/20 00:45:50;;;;;;;13.98;2.20;;;45.30;28.30;;;;;;4872341;29;20033;-68
2023/07/20 00:48:17;;;;;;;12.40;1.90;;;45.30;28.90;;;;;;4872716;29;20037;-69
2023/07/20 00:50:43;;;;;;;13.15;2.25;;;45.30;28.40;;;;;;4871823;29;20044;-72
2023/07/20 00:53:10;;;;;;;20.55;2.25;;;45.40;28.60;;;;;;4871842;29;20025;-71
2023/07/20 00:55:36;;;;;;;10.52;2.33;;;45.30;28.70;;;;;;4872474;29;20054;-69
2023/07/20 00:58:04;;;;;;;8.50;2.13;;;45.20;28.70;;;;;;4875268;29;20496;-67
2023/07/20 01:00:31;;;;;;;11.82;2.53;;;45.20;28.70;;;;;;4875469;29;20109;-67
2023/07/20 01:02:57;;;;;;;20.30;2.50;;;45.10;28.90;;;;;;4875713;29;20080;-69
2023/07/20 01:05:36;;;;;;;15.10;2.20;;;45.00;28.80;;;;;;4875292;29;20146;-68
2023/07/20 01:08:09;;;;;;;9.70;2.17;;;45.00;29.00;;;;;;4875448;29;20107;-68
2023/07/20 01:11:09;;;;;;;11.13;2.33;;;44.90;29.00;;;;;;4875898;29;20036;-66
2023/07/20 01:13:37;;;;;;;13.77;2.35;;;44.90;29.00;;;;;;4871699;29;20056;-69
2023/07/20 01:16:03;;;;;;;13.82;2.83;;;44.80;29.10;;;;;;4859502;29;20069;-67
2023/07/20 01:18:30;;;;;;;8.82;2.35;;;44.80;29.30;;;;;;4874728;29;20414;-69
2023/07/20 01:21:03;;;;;;;13.23;2.13;;;44.70;29.20;;;;;;4873505;29;20040;-68
2023/07/20 01:23:54;;;;;;;9.32;2.58;;;44.70;29.50;;;;;;4875082;29;20036;-67
2023/07/20 01:27:07;;;;;;;10.35;2.95;;;44.70;30.40;;;;;;4875508;29;20132;-68
2023/07/20 01:29:46;;;;;;;17.23;2.60;;;44.70;31.50;;;;;;4820798;29;20041;-69
2023/07/20 01:32:15;;;;;;;8.57;2.05;;;44.50;31.60;;;;;;4816579;29;20089;-72
2023/07/20 01:34:42;;;;;;;14.27;2.40;;;44.50;32.50;;;;;;4821600;29;20023;-70
2023/07/20 01:37:09;;;;;;;10.18;2.30;;;44.30;32.00;;;;;;4817615;29;20467;-68
2023/07/20 01:39:37;;;;;;;14.15;2.80;;;44.20;32.00;;;;;;4817968;29;20107;-70
2023/07/20 01:42:04;;;;;;;10.13;2.40;;;44.20;33.00;;;;;;4817480;29;20033;-68
2023/07/20 01:44:30;;;;;;;15.90;2.53;;;44.20;32.30;;;;;;4821841;29;20369;-68
2023/07/20 01:46:56;;;;;;;12.48;2.40;;;44.10;32.40;;;;;;4823597;29;20803;-68
2023/07/20 01:49:23;;;;;;;19.05;2.47;;;44.00;32.30;;;;;;4817123;29;20023;-69
2023/07/20 01:51:49;;;;;;;14.85;2.92;;;44.00;32.50;;;;;;4818860;29;20065;-69
2023/07/20 01:54:15;;;;;;;14.18;5.47;;;44.20;32.20;;;;;;4817840;29;20035;-69
2023/07/20 01:56:42;;;;;;;12.45;3.03;;;44.60;31.50;;;;;;4822938;29;20050;-67
2023/07/20 01:59:08;;;;;;;10.88;2.72;;;45.00;31.00;;;;;;4828719;29;20208;-68
2023/07/20 02:01:35;;;;;;;13.25;2.88;;;45.20;30.70;;;;;;4874925;29;20481;-67
2023/07/20 02:04:01;;;;;;;17.00;3.50;;;45.20;30.80;;;;;;4874455;29;20041;-67
2023/07/20 02:06:27;;;;;;;8.63;2.25;;;45.00;31.00;;;;;;4874981;29;20482;-66
2023/07/20 02:08:54;;;;;;;15.30;3.85;;;44.60;31.40;;;;;;4876064;29;20033;-68
2023/07/20 02:11:20;;;;;;;17.08;3.05;;;44.30;31.90;;;;;;4875300;29;20032;-68
2023/07/20 02:13:46;;;;;;;14.63;3.42;;;44.00;32.20;;;;;;4874577;29;20029;-68
2023/07/20 02:16:13;;;;;;;14.15;2.85;;;43.90;32.70;;;;;;4874332;29;20024;-69
2023/07/20 02:18:39;;;;;;;12.27;2.75;;;43.80;33.00;;;;;;4874844;29;20066;-68
2023/07/20 02:21:06;;;;;;;23.88;3.08;;;43.60;33.20;;;;;;4875936;29;20017;-68
2023/07/20 02:23:32;;;;;;;18.00;2.60;;;43.40;33.50;;;;;;4874499;29;20025;-68
2023/07/20 02:25:59;;;;;;;9.25;2.40;;;43.20;33.30;;;;;;4875260;29;20020;-66
2023/07/20 02:28:25;;;;;;;13.45;3.70;;;43.20;33.40;;;;;;4875051;29;20040;-70
2023/07/20 02:30:51;;;;;;;12.70;3.83;;;43.10;33.30;;;;;;4874421;29;20063;-66
2023/07/20 02:33:18;;;;;;;18.65;4.60;;;43.00;33.10;;;;;;4874216;29;20450;-66
2023/07/20 02:35:44;;;;;;;24.92;8.80;;;43.00;33.30;;;;;;4873883;29;20025;-69
2023/07/20 02:38:10;;;;;;;14.10;6.97;;;42.80;33.60;;;;;;4874855;29;20025;-67
2023/07/20 02:40:37;;;;;;;22.48;7.35;;;42.80;34.00;;;;;;4874627;29;20021;-67
2023/07/20 02:43:03;;;;;;;26.00;10.07;;;42.80;34.30;;;;;;4874476;29;20495;-67
2023/07/20 02:45:30;;;;;;;21.13;8.68;;;42.60;34.30;;;;;;4874143;29;20029;-66
2023/07/20 02:47:56;;;;;;;29.52;9.82;;;42.60;34.80;;;;;;4874775;29;20021;-66
2023/07/20 02:50:23;;;;;;;33.35;11.43;;;42.50;34.70;;;;;;4888894;29;20489;-67
2023/07/20 02:52:50;;;;;;;24.65;9.95;;;42.40;34.80;;;;;;4874012;29;20520;-68
2023/07/20 02:55:16;;;;;;;28.10;10.48;;;42.40;35.00;;;;;;4873760;29;20021;-68
2023/07/20 02:57:43;;;;;;;35.92;8.27;;;42.30;35.20;;;;;;4873491;29;20021;-69
2023/07/20 03:00:11;;;;;;;27.77;6.35;;;42.20;35.20;;;;;;4872835;29;20013;-70
2023/07/20 03:02:37;;;;;;;27.80;5.72;;;42.20;35.40;;;;;;4873533;29;20029;-68
2023/07/20 03:05:07;;;;;;;25.30;6.40;;;42.10;35.20;;;;;;4857009;29;20037;-68
2023/07/20 03:07:33;;;;;;;36.50;5.10;;;42.00;34.70;;;;;;4872172;29;20017;-67
2023/07/20 03:09:59;;;;;;;33.55;5.10;;;41.90;34.80;;;;;;4873468;29;20033;-65
2023/07/20 03:12:26;;;;;;;24.98;4.40;;;41.90;34.90;;;;;;4873615;29;20033;-67
2023/07/20 03:14:54;;;;;;;24.13;4.30;;;41.90;35.00;;;;;;4873525;29;20044;-67
2023/07/20 03:17:20;;;;;;;21.13;4.70;;;41.80;35.00;;;;;;4874353;29;20017;-67
2023/07/20 03:19:47;;;;;;;24.33;4.20;;;41.80;35.30;;;;;;4873925;29;20347;-67
2023/07/20 03:22:13;;;;;;;20.95;3.58;;;41.70;35.30;;;;;;4873409;29;20028;-67
2023/07/20 03:24:39;;;;;;;16.05;3.33;;;41.70;35.30;;;;;;4857083;29;20447;-68
2023/07/20 03:27:06;;;;;;;15.88;3.63;;;41.60;35.00;;;;;;4873595;29;20036;-68
2023/07/20 03:29:33;;;;;;;27.65;3.90;;;41.50;35.10;;;;;;4856846;29;20028;-68
2023/07/20 03:31:59;;;;;;;28.95;4.32;;;41.50;34.80;;;;;;4856262;29;20437;-71
2023/07/20 03:34:26;;;;;;;25.20;3.67;;;41.40;35.00;;;;;;4873667;29;20048;-71
2023/07/20 03:36:52;;;;;;;20.70;3.80;;;41.40;34.60;;;;;;4873345;29;20028;-67
2023/07/20 03:39:19;;;;;;;14.18;3.30;;;41.40;34.40;;;;;;4874166;29;20081;-67
2023/07/20 03:41:45;;;;;;;16.45;3.47;;;41.40;34.30;;;;;;4874053;29;20025;-67
2023/07/20 03:44:12;;;;;;;16.38;3.20;;;41.30;34.40;;;;;;4873534;29;20507;-67
2023/07/20 03:46:38;;;;;;;21.95;3.97;;;41.30;34.30;;;;;;4874672;29;20021;-68
2023/07/20 03:49:06;;;;;;;18.02;4.03;;;41.20;32.70;;;;;;4873473;29;20033;-70
2023/07/20 03:51:32;;;;;;;22.88;4.80;;;41.30;32.00;;;;;;4874163;29;20036;-69
2023/07/20 03:53:59;;;;;;;29.52;4.63;;;41.20;31.50;;;;;;4873195;29;20017;-67
2023/07/20 03:56:26;;;;;;;25.20;6.00;;;41.30;32.10;;;;;;4873575;29;20151;-69
2023/07/20 03:58:52;;;;;;;24.10;5.60;;;41.20;30.70;;;;;;4873362;29;20029;-68
2023/07/20 04:01:19;;;;;;;16.33;5.55;;;41.20;31.50;;;;;;4873593;29;20355;-71
2023/07/20 04:03:45;;;;;;;23.70;7.10;;;41.20;31.90;;;;;;4873299;29;20185;-67
2023/07/20 04:06:12;;;;;;;20.40;7.03;;;41.20;32.00;;;;;;4873500;29;20029;-73
2023/07/20 04:08:38;;;;;;;19.60;3.38;;;41.20;31.90;;;;;;4871031;29;20025;-71
2023/07/20 04:11:04;;;;;;;18.85;3.45;;;41.10;32.10;;;;;;4874443;29;20017;-68
2023/07/20 04:13:34;;;;;;;26.77;4.60;;;41.10;32.80;;;;;;4872584;29;20021;-70
2023/07/20 04:16:02;;;;;;;14.57;4.30;;;41.00;32.60;;;;;;4874360;29;20041;-69
2023/07/20 04:18:28;;;;;;;10.80;3.45;;;41.00;31.10;;;;;;4872887;29;20036;-69
2023/07/20 04:20:55;;;;;;;9.20;2.70;;;40.90;30.20;;;;;;4855977;29;20190;-70
2023/07/20 04:23:21;;;;;;;10.30;2.60;;;40.90;29.40;;;;;;4872124;29;20540;-68
2023/07/20 04:25:47;;;;;;;7.60;2.40;;;40.90;29.10;;;;;;4873312;29;20032;-69
2023/07/20 04:28:14;;;;;;;11.00;2.90;;;40.80;29.20;;;;;;4856691;29;20660;-71
2023/07/20 04:30:40;;;;;;;7.68;2.67;;;40.80;29.40;;;;;;4873821;29;20083;-70
2023/07/20 04:33:07;;;;;;;6.72;2.42;;;40.70;29.50;;;;;;4876426;29;20029;-71
2023/07/20 04:35:55;;;;;;;8.38;2.50;;;40.60;29.40;;;;;;4876893;29;20485;-71
2023/07/20 04:38:21;;;;;;;8.43;2.70;;;40.60;29.60;;;;;;4875997;29;20056;-70
2023/07/20 04:40:49;;;;;;;11.68;3.35;;;40.50;29.80;;;;;;4877508;29;20062;-71
2023/07/20 04:43:17;;;;;;;10.90;2.83;;;40.50;29.80;;;;;;4876020;29;20159;-69
2023/07/20 04:45:44;;;;;;;8.35;2.47;;;40.40;30.00;;;;;;4875879;29;20139;-69
2023/07/20 04:48:12;;;;;;;8.15;2.65;;;40.40;30.00;;;;;;4875485;29;20039;-71
2023/07/20 04:50:42;;;;;;;5.72;2.50;;;40.30;30.00;;;;;;4875426;29;20080;-69
2023/07/20 04:53:12;;;;;;;6.80;2.58;;;40.20;30.30;;;;;;4876292;29;20056;-70
2023/07/20 04:55:39;;;;;;;7.15;2.67;;;40.20;30.60;;;;;;4875021;29;20017;-71
2023/07/20 04:58:06;;;;;;;5.78;2.72;;;40.10;30.80;;;;;;4875843;29;20017;-70
2023/07/20 05:00:34;;;;;;;6.25;2.55;;;40.00;30.80;;;;;;4874686;29;20021;-68
2023/07/20 05:03:00;;;;;;;8.63;2.70;;;39.90;30.90;;;;;;4876128;29;20024;-69
2023/07/20 05:05:27;;;;;;;10.48;3.15;;;39.80;31.00;;;;;;4858610;29;20029;-72
2023/07/20 05:07:54;;;;;;;4.78;2.47;;;39.80;31.10;;;;;;4859777;29;20017;-70
2023/07/20 05:10:20;;;;;;;5.90;2.50;;;39.70;31.30;;;;;;4876442;29;20069;-69
2023/07/20 05:12:47;;;;;;;10.00;2.65;;;39.60;31.40;;;;;;4875906;29;20552;-68
2023/07/20 05:15:13;;;;;;;9.18;2.80;;;39.60;31.60;;;;;;4876113;29;20017;-70
2023/07/20 05:17:40;;;;;;;17.90;3.10;;;39.50;31.80;;;;;;4877129;29;20060;-72
2023/07/20 05:20:09;;;;;;;27.95;3.70;;;39.50;32.20;;;;;;4879311;29;20029;-68
2023/07/20 05:22:39;;;;;;;11.85;3.08;;;39.40;32.20;;;;;;4875913;29;20032;-65
2023/07/20 05:25:08;;;;;;;14.15;2.97;;;39.40;32.00;;;;;;4875007;29;20025;-69
2023/07/20 05:27:36;;;;;;;16.30;3.47;;;39.40;31.80;;;;;;4875571;29;20347;-66
2023/07/20 05:30:03;;;;;;;9.43;3.05;;;39.40;32.10;;;;;;4876103;29;20098;-65
2023/07/20 05:32:29;;;;;;;8.32;2.97;;;39.30;32.40;;;;;;4875859;29;20065;-67
2023/07/20 05:34:56;;;;;;;6.43;3.25;;;39.30;32.60;;;;;;4876342;29;20021;-65
2023/07/20 05:37:22;;;;;;;12.25;7.07;;;39.30;32.70;;;;;;4875183;29;20053;-67
2023/07/20 05:39:49;;;;;;;8.35;5.60;;;39.20;32.10;;;;;;4875981;29;20017;-67
2023/07/20 05:42:16;;;;;;;7.32;3.33;;;39.20;33.00;;;;;;4874933;29;20021;-65
2023/07/20 05:44:42;;;;;;;6.47;4.35;;;39.20;32.20;;;;;;4876076;29;20021;-65
2023/07/20 05:47:09;;;;;;;6.00;3.08;;;39.10;32.50;;;;;;4876118;29;20073;-66
2023/07/20 05:49:36;;;;;;;9.52;2.80;;;39.10;32.20;;;;;;4875359;29;20039;-67
2023/07/20 05:52:02;;;;;;;5.78;2.15;;;39.10;32.70;;;;;;4876487;29;20088;-66
2023/07/20 05:54:28;;;;;;;9.98;2.78;;;39.10;32.40;;;;;;4875291;29;20040;-66
2023/07/20 05:56:55;;;;;;;11.70;3.00;;;39.00;32.70;;;;;;4874769;29;20418;-66
2023/07/20 05:59:23;;;;;;;9.02;2.60;;;39.00;32.90;;;;;;4875832;29;20021;-65
2023/07/20 06:01:49;;;;;;;8.85;2.72;;;38.90;32.70;;;;;;4874908;29;20051;-66
2023/07/20 06:04:16;;;;;;;11.30;2.75;;;38.90;32.80;;;;;;4875264;29;20490;-65
2023/07/20 06:06:42;;;;;;;10.82;2.60;;;38.90;33.10;;;;;;4875053;29;20029;-65
2023/07/20 06:09:11;;;;;;;4.43;2.08;;;38.80;33.20;;;;;;4875076;29;20029;-64
2023/07/20 06:11:40;;;;;;;7.20;2.63;;;38.80;33.50;;;;;;4874290;29;20544;-64
2023/07/20 06:14:07;;;;;;;9.52;2.38;;;38.80;33.40;;;;;;4875245;29;20494;-66
2023/07/20 06:16:33;;;;;;;8.10;2.47;;;38.70;32.90;;;;;;4874710;29;20028;-65
2023/07/20 06:19:03;;;;;;;5.63;2.10;;;38.70;33.30;;;;;;4874944;29;20045;-66
2023/07/20 06:21:29;;;;;;;10.20;2.70;;;38.60;33.40;;;;;;4874525;29;20363;-64
2023/07/20 06:23:56;;;;;;;4.68;2.40;;;38.60;33.40;;;;;;4874226;29;20047;-65
2023/07/20 06:26:22;;;;;;;7.03;2.50;;;38.60;33.90;;;;;;4874741;29;20080;-65
2023/07/20 06:28:49;;;;;;;8.25;2.45;;;38.50;33.50;;;;;;4875475;29;20059;-67
2023/07/20 06:31:17;;;;;;;5.85;2.05;;;38.50;33.40;;;;;;4874895;29;20028;-66
2023/07/20 06:33:43;;;;;;;5.88;3.03;;;38.50;33.40;;;;;;4874253;29;20047;-66
2023/07/20 06:36:11;;;;;;;10.60;3.38;;;38.50;33.20;;;;;;4876076;29;20086;-66
2023/07/20 06:38:37;;;;;;;10.55;2.75;;;38.40;33.40;;;;;;4874356;29;20461;-67
2023/07/20 06:41:03;;;;;;;6.82;2.50;;;38.40;33.70;;;;;;4875226;29;20017;-64
2023/07/20 06:43:30;;;;;;;13.07;2.67;;;38.40;33.50;;;;;;4874512;29;20472;-65
2023/07/20 06:45:56;;;;;;;4.22;1.80;;;38.40;33.60;;;;;;4873931;29;20060;-66
2023/07/20 06:48:23;;;;;;;6.63;2.10;;;38.40;33.40;;;;;;4873806;29;20047;-68
2023/07/20 06:50:49;;;;;;;6.38;2.22;;;38.40;33.50;;;;;;4873632;29;20032;-67
2023/07/20 06:53:17;;;;;;;5.03;2.13;;;38.30;33.60;;;;;;4872424;29;20065;-66
2023/07/20 06:55:44;;;;;;;6.93;2.40;;;38.30;33.30;;;;;;4873593;29;20481;-65
2023/07/20 06:58:11;;;;;;;6.72;2.22;;;38.30;33.20;;;;;;4874266;29;20041;-65
2023/07/20 07:00:38;;;;;;;4.05;2.10;;;38.30;33.10;;;;;;4874480;29;20452;-66
2023/07/20 07:03:04;;;;;;;5.22;1.88;;;38.30;33.00;;;;;;4874124;29;20138;-65
2023/07/20 07:05:31;;;;;;;5.45;1.75;;;38.20;33.10;;;;;;4873562;29;20067;-66
2023/07/20 07:07:57;;;;;;;4.25;1.90;;;38.30;32.80;;;;;;4872118;29;20071;-65
2023/07/20 07:10:23;;;;;;;12.40;2.08;;;38.20;32.90;;;;;;4874463;29;20047;-66
2023/07/20 07:12:50;;;;;;;6.55;2.30;;;38.30;32.80;;;;;;4873170;29;20070;-67
2023/07/20 07:15:16;;;;;;;3.22;1.70;;;38.20;32.70;;;;;;4873185;29;20658;-66
2023/07/20 07:17:43;;;;;;;7.53;2.13;;;38.20;32.70;;;;;;4873117;29;20016;-65
2023/07/20 07:20:10;;;;;;;3.45;1.83;;;38.30;32.80;;;;;;4873861;29;20037;-68
2023/07/20 07:22:36;;;;;;;5.85;2.03;;;38.20;32.70;;;;;;4872565;29;20096;-67
2023/07/20 07:25:03;;;;;;;7.05;1.92;;;38.30;32.60;;;;;;4873070;29;20076;-67
2023/07/20 07:27:29;;;;;;;6.00;2.05;;;38.30;32.30;;;;;;4872767;29;20067;-66
2023/07/20 07:29:55;;;;;;;7.68;2.00;;;38.20;32.20;;;;;;4873247;29;21440;-66
2023/07/20 07:32:22;;;;;;;8.13;2.17;;;38.30;32.00;;;;;;4872998;29;20530;-66
2023/07/20 07:34:48;;;;;;;3.97;1.80;;;38.30;31.80;;;;;;4872815;29;20107;-66
2023/07/20 07:37:15;;;;;;;4.65;1.88;;;38.30;31.90;;;;;;4872180;29;20046;-66
2023/07/20 07:39:42;;;;;;;5.10;1.70;;;38.30;31.80;;;;;;4873797;29;20134;-67
2023/07/20 07:42:08;;;;;;;7.75;2.33;;;38.30;31.90;;;;;;4873252;29;20051;-65
2023/07/20 07:44:35;;;;;;;3.20;2.38;;;38.20;31.90;;;;;;4871767;29;20173;-65
2023/07/20 07:47:01;;;;;;;5.13;2.30;;;38.20;32.00;;;;;;4873239;29;20179;-65
2023/07/20 07:49:28;;;;;;;5.97;1.98;;;38.20;31.70;;;;;;4872743;29;20069;-66
2023/07/20 07:51:54;;;;;;;3.22;1.80;;;38.20;31.90;;;;;;4871465;29;20067;-67
2023/07/20 07:54:20;;;;;;;4.97;1.83;;;38.20;32.20;;;;;;4872132;29;21394;-67
2023/07/20 07:56:47;;;;;;;6.05;2.13;;;38.10;32.20;;;;;;4872179;29;20071;-65
2023/07/20 07:59:13;;;;;;;5.88;2.10;;;38.10;32.50;;;;;;4871677;29;20041;-65
2023/07/20 08:01:39;;;;;;;5.53;2.22;;;38.10;32.40;;;;;;4856627;29;20055;-66
2023/07/20 08:04:06;;;;;;;5.22;2.00;;;38.00;32.40;;;;;;4855697;29;20102;-66
2023/07/20 08:06:32;;;;;;;3.85;2.10;;;38.00;32.30;;;;;;4871327;29;20059;-66
2023/07/20 08:08:59;;;;;;;3.30;1.73;;;37.90;32.50;;;;;;4855737;29;20092;-68
2023/07/20 08:11:25;;;;;;;4.63;1.80;;;37.90;32.70;;;;;;4872813;29;20073;-66
2023/07/20 08:13:51;;;;;;;3.55;1.95;;;37.80;32.80;;;;;;4873016;29;20084;-66
2023/07/20 08:16:18;;;;;;;4.72;1.98;;;37.80;32.80;;;;;;4874141;29;20130;-66
2023/07/20 08:18:45;;;;;;;5.85;1.60;;;37.70;32.70;;;;;;4855495;29;20044;-65
2023/07/20 08:21:11;;;;;;;4.13;1.85;;;37.70;33.00;;;;;;4872636;29;20044;-66
2023/07/20 08:23:38;;;;;;;6.28;1.83;;;37.70;33.00;;;;;;4872420;29;20465;-66
2023/07/20 08:26:04;;;;;;;5.53;2.05;;;37.60;33.20;;;;;;4872409;29;20138;-67
2023/07/20 08:28:31;;;;;;;6.07;2.20;;;37.60;33.30;;;;;;4872698;29;20053;-67
2023/07/20 08:30:57;;;;;;;3.40;1.98;;;37.50;33.10;;;;;;4856480;29;20128;-66
2023/07/20 08:33:24;;;;;;;3.45;2.03;;;37.50;32.90;;;;;;4872012;29;20067;-65
2023/07/20 08:35:50;;;;;;;2.97;2.03;;;37.50;33.50;;;;;;4872413;29;20054;-66
2023/07/20 08:38:17;;;;;;;3.25;1.67;;;37.40;33.80;;;;;;4872785;29;20058;-66
2023/07/20 08:40:47;;;;;;;6.40;2.00;;;37.40;34.20;;;;;;4872714;29;20111;-66
2023/07/20 08:43:18;;;;;;;6.40;2.22;;;37.40;34.50;;;;;;4872592;29;20143;-68
2023/07/20 08:45:45;;;;;;;8.50;2.10;;;37.30;34.50;;;;;;4872677;29;20062;-66
2023/07/20 08:48:13;;;;;;;4.45;2.17;;;37.20;34.30;;;;;;4871922;29;20080;-66
2023/07/20 08:50:40;;;;;;;5.03;2.05;;;37.10;35.10;;;;;;4871894;29;20140;-67
2023/07/20 08:53:08;;;;;;;3.15;1.92;;;37.10;35.40;;;;;;4872123;29;20079;-67
2023/07/20 08:55:36;;;;;;;8.35;1.98;;;37.00;35.90;;;;;;4873048;29;20114;-66
2023/07/20 08:58:06;;;;;;;6.80;1.60;;;36.90;36.40;;;;;;4873093;29;20049;-66
2023/07/20 09:00:33;;;;;;;8.60;2.28;;;36.80;37.30;;;;;;4871304;29;20064;-66
2023/07/20 09:03:02;;;;;;;10.23;2.20;;;36.70;38.10;;;;;;4872251;29;20058;-66
2023/07/20 09:05:29;;;;;;;8.25;2.17;;;36.60;37.70;;;;;;4872054;29;20078;-65
2023/07/20 09:07:56;;;;;;;3.42;2.20;;;36.50;38.90;;;;;;4872817;29;20061;-68
2023/07/20 09:10:24;;;;;;;9.63;2.10;;;36.50;38.70;;;;;;4871896;29;20057;-66
2023/07/20 09:12:50;;;;;;;8.32;2.05;;;36.40;38.40;;;;;;4872226;29;20083;-67
2023/07/20 09:15:17;;;;;;;5.82;2.42;;;36.30;38.40;;;;;;4872840;29;20093;-66
2023/07/20 09:17:48;;;;;;;10.45;2.00;;;36.20;38.90;;;;;;4873921;29;20061;-66
2023/07/20 09:20:18;;;;;;;4.65;2.20;;;36.20;39.40;;;;;;4876155;29;20071;-65
2023/07/20 09:22:45;;;;;;;6.05;1.90;;;36.10;39.10;;;;;;4876675;29;20145;-65
2023/07/20 09:25:16;;;;;;;12.95;2.42;;;36.10;39.20;;;;;;4875532;29;20061;-64
2023/07/20 09:27:47;;;;;;;7.57;2.33;;;36.00;38.80;;;;;;4874620;29;20055;-66
2023/07/20 09:30:15;;;;;;;9.60;2.67;;;35.90;38.70;;;;;;4875234;29;20198;-65
2023/07/20 09:32:45;;;;;;;14.13;2.50;;;35.90;38.80;;;;;;4875164;29;20542;-65
2023/07/20 09:35:15;;;;;;;11.18;2.42;;;35.80;39.10;;;;;;4875495;29;20072;-65
2023/07/20 09:37:55;;;;;;;11.35;2.30;;;35.80;39.40;;;;;;4875343;29;20420;-65
2023/07/20 09:40:22;;;;;;;10.40;2.38;;;35.70;39.60;;;;;;4875429;29;20101;-66
2023/07/20 09:42:51;;;;;;;8.00;2.30;;;35.70;39.70;;;;;;4875805;29;20071;-66
2023/07/20 09:45:18;;;;;;;6.57;2.17;;;35.60;40.10;;;;;;4874146;29;20423;-66
2023/07/20 09:47:44;;;;;;;5.82;2.30;;;35.50;39.80;;;;;;4875253;29;20523;-66
2023/07/20 09:50:11;;;;;;;11.00;2.35;;;35.50;40.00;;;;;;4875925;29;20074;-65
2023/07/20 09:52:45;;;;;;;6.90;1.90;;;35.40;40.30;;;;;;4875267;29;20562;-66
2023/07/20 09:55:13;;;;;;;12.88;2.70;;;35.40;40.60;;;;;;4874841;29;20073;-66
2023/07/20 09:57:40;;;;;;;6.82;1.88;;;35.40;39.90;;;;;;4875794;29;20058;-65
2023/07/20 10:00:14;;;;;;;13.23;2.53;;;35.40;40.00;;;;;;4875680;29;20111;-65
2023/07/20 10:02:45;;;;;;;7.35;2.40;;;35.30;40.60;;;;;;4889175;29;20086;-66
2023/07/20 10:05:16;;;;;;;18.02;4.32;;;35.30;40.10;;;;;;4875224;29;20452;-65
2023/07/20 10:07:50;;;;;;;30.95;6.35;;;35.20;41.80;;;;;;4875458;29;20144;-66
2023/07/20 10:10:18;;;;;;;21.65;7.57;;;35.20;44.10;;;;;;4874839;29;21523;-66
2023/07/20 10:12:48;;;;;;;33.72;9.45;;;35.10;45.60;;;;;;4874296;29;20513;-64
2023/07/20 10:15:36;;;;;;;34.97;9.57;;;35.10;47.20;;;;;;4874623;29;20109;-66
2023/07/20 10:18:06;;;;;;;32.10;9.45;;;35.00;48.50;;;;;;4874999;29;20081;-66
2023/07/20 10:20:35;;;;;;;24.90;7.75;;;34.90;49.50;;;;;;4875258;29;20065;-65
2023/07/20 10:23:04;;;;;;;19.60;8.00;;;34.90;50.50;;;;;;4875455;29;20128;-66
2023/07/20 10:25:32;;;;;;;30.27;7.93;;;35.00;51.40;;;;;;4874666;29;20070;-66
2023/07/20 10:27:59;;;;;;;26.13;7.60;;;34.90;52.40;;;;;;4874888;29;20076;-66
2023/07/20 10:30:27;;;;;;;26.30;7.45;;;34.90;52.70;;;;;;4874337;29;20097;-66
2023/07/20 10:32:53;;;;;;;21.63;6.72;;;34.90;53.60;;;;;;4875355;29;20505;-65
2023/07/20 10:35:20;;;;;;;21.58;6.63;;;34.80;54.80;;;;;;4875935;29;20088;-66
2023/07/20 10:37:54;;;;;;;21.50;7.28;;;34.80;55.90;;;;;;4875631;29;20148;-65
2023/07/20 10:40:35;;;;;;;25.17;9.15;;;34.80;56.70;;;;;;4873466;29;20092;-66
2023/07/20 10:43:07;;;;;;;33.25;9.32;;;34.60;57.30;;;;;;4874361;29;20058;-65
2023/07/20 10:45:41;;;;;;;29.00;9.45;;;34.60;57.80;;;;;;4874518;29;20472;-65
2023/07/20 10:48:19;;;;;;;26.73;9.88;;;34.50;58.40;;;;;;4872259;29;20065;-65
2023/07/20 10:51:06;;;;;;;30.90;9.30;;;34.50;58.90;;;;;;4874293;29;20076;-66
2023/07/20 10:53:32;;;;;;;28.10;8.60;;;34.50;59.10;;;;;;4873315;29;20081;-65
2023/07/20 10:56:13;;;;;;;23.48;8.73;;;34.40;59.20;;;;;;4857359;29;20059;-65
2023/07/20 10:58:41;;;;;;;24.20;8.73;;;34.40;60.40;;;;;;4872690;29;20539;-66
2023/07/20 11:01:08;;;;;;;23.23;8.38;;;34.30;60.90;;;;;;4874966;29;20059;-66
2023/07/20 11:03:39;;;;;;;25.33;8.02;;;34.20;61.70;;;;;;4874486;29;20106;-65
2023/07/20 11:06:24;;;;;;;22.58;8.35;;;34.20;62.70;;;;;;4856891;29;20096;-66
2023/07/20 11:09:14;;;;;;;25.50;8.27;;;34.20;63.70;;;;;;4874702;29;20698;-64
2023/07/20 11:11:44;;;;;;;20.77;7.65;;;34.20;64.40;;;;;;4874042;29;20295;-65
2023/07/20 11:14:44;;;;;;;18.42;6.20;;;34.10;65.60;;;;;;4873046;29;21506;-65
2023/07/20 11:17:15;;;;;;;22.95;5.97;;;34.10;67.20;;;;;;4804473;29;20078;-66
2023/07/20 11:19:42;;;;;;;25.60;6.50;;;34.00;67.90;;;;;;4803624;29;20443;-65
2023/07/20 11:22:09;;;;;;;24.23;7.30;;;34.00;68.90;;;;;;4801392;29;20196;-64
2023/07/20 11:24:40;;;;;;;18.85;6.88;;;33.90;70.00;;;;;;4803113;29;20081;-67
2023/07/20 11:27:06;;;;;;;18.58;5.82;;;33.90;72.00;;;;;;4804954;29;20091;-64
2023/07/20 11:29:33;;;;;;;20.10;6.32;;;33.90;71.70;;;;;;4805020;29;20076;-65
2023/07/20 11:32:00;;;;;;;22.27;6.55;;;34.00;72.10;;;;;;4805908;29;20166;-64
2023/07/20 11:34:27;;;;;;;20.02;6.70;;;33.90;72.60;;;;;;4801128;29;20106;-66
2023/07/20 11:36:54;;;;;;;19.63;5.88;;;33.80;73.50;;;;;;4803357;29;20099;-65
2023/07/20 11:39:24;;;;;;;17.00;5.25;;;33.80;74.20;;;;;;4803780;29;20067;-65
2023/07/20 11:41:51;;;;;;;20.67;5.63;;;33.70;74.90;;;;;;4801519;29;20079;-64
2023/07/20 11:44:19;;;;;;;15.88;5.43;;;33.70;75.30;;;;;;4804049;29;20103;-65
2023/07/20 11:46:46;;;;;;;20.25;5.25;;;33.70;75.80;;;;;;4802062;29;20083;-66
2023/07/20 11:49:12;;;;;;;19.73;4.63;;;33.50;74.80;;;;;;4805797;29;20242;-67
2023/07/20 11:51:40;;;;;;;12.45;4.38;;;33.50;72.70;;;;;;4806749;29;20116;-64
2023/07/20 11:54:09;;;;;;;11.27;4.00;;;33.50;71.60;;;;;;4857091;29;20079;-65
2023/07/20 11:56:35;;;;;;;16.80;4.57;;;33.50;70.70;;;;;;4872385;29;20058;-66
2023/07/20 11:59:02;;;;;;;14.73;4.68;;;33.50;70.50;;;;;;4873291;29;20070;-65
2023/07/20 12:01:34;;;;;;;17.63;4.47;;;33.50;70.10;;;;;;4872793;29;20490;-65
2023/07/20 12:04:03;;;;;;;17.13;5.25;;;33.40;70.50;;;;;;4872805;29;20403;-66
2023/07/20 12:06:30;;;;;;;14.38;4.18;;;33.30;71.20;;;;;;4872624;29;20087;-66
2023/07/20 12:08:58;;;;;;;12.80;4.30;;;33.30;71.70;;;;;;4874534;29;20145;-66
2023/07/20 12:11:38;;;;;;;19.13;4.97;;;33.30;71.90;;;;;;4872783;29;20077;-66
2023/07/20 12:14:07;;;;;;;14.30;4.38;;;33.30;72.10;;;;;;4872815;29;20078;-66
2023/07/20 12:16:35;;;;;;;22.65;5.47;;;33.30;72.40;;;;;;4872692;29;20091;-64
2023/07/20 12:19:09;;;;;;;17.88;4.88;;;33.20;73.00;;;;;;4873054;29;20066;-66
2023/07/20 12:21:37;;;;;;;15.60;5.18;;;33.20;73.90;;;;;;4872967;29;20099;-66
2023/07/20 12:24:05;;;;;;;20.55;5.63;;;33.10;74.50;;;;;;4873177;29;20070;-66
2023/07/20 12:26:33;;;;;;;20.42;6.35;;;33.00;75.70;;;;;;4872999;29;20421;-65
2023/07/20 12:29:00;;;;;;;25.35;8.68;;;33.00;76.30;;;;;;4872701;29;20064;-65
2023/07/20 12:31:29;;;;;;;31.52;10.75;;;33.00;76.60;;;;;;4871940;29;20103;-65
2023/07/20 12:33:57;;;;;;;35.13;11.10;;;32.90;76.80;;;;;;4856412;29;21626;-65
2023/07/20 12:36:24;;;;;;;25.77;11.07;;;32.80;76.80;;;;;;4873398;29;20062;-66
2023/07/20 12:39:01;;;;;;;31.58;11.57;;;32.80;77.00;;;;;;4873311;29;20083;-65
2023/07/20 12:41:28;;;;;;;34.40;11.30;;;32.80;77.20;;;;;;4842271;29;20079;-66
2023/07/20 12:43:57;;;;;;;41.30;11.38;;;32.80;77.20;;;;;;4872749;29;20611;-66
2023/07/20 12:46:24;;;;;;;35.78;12.00;;;32.90;77.80;;;;;;4872406;29;20564;-66